createdAt,value
2022-08-17T00:01:51.768Z,7.00
2022-08-17T00:04:20.034Z,6.83
2022-08-17T00:06:54.191Z,6.97
2022-08-17T00:09:26.771Z,7.08
2022-08-17T00:12:40.631Z,6.53
2022-08-17T00:14:35.239Z,6.72
2022-08-17T00:17:08.364Z,6.60
2022-08-17T00:19:41.183Z,6.67
2022-08-17T00:22:32.472Z,7.15
2022-08-17T00:24:47.804Z,7.22
2022-08-17T00:27:20.695Z,6.33
2022-08-17T00:29:53.509Z,6.35
2022-08-17T00:33:15.478Z,7.00
2022-08-17T00:35:01.212Z,7.08
2022-08-17T00:37:34.351Z,6.95
2022-08-17T00:40:09.850Z,6.85
2022-08-17T00:42:43.478Z,6.08
2022-08-17T00:45:18.003Z,6.65
2022-08-17T00:47:52.577Z,6.25
2022-08-17T00:50:26.238Z,7.00
2022-08-17T00:52:59.381Z,6.90
2022-08-17T00:55:32.931Z,7.35
2022-08-17T00:58:06.418Z,7.20
2022-08-17T01:00:42.543Z,7.25
2022-08-17T01:03:21.213Z,7.12
2022-08-17T01:05:57.089Z,7.25
2022-08-17T01:08:32.116Z,6.62
2022-08-17T01:13:41.988Z,6.30
2022-08-17T01:16:25.904Z,6.80
2022-08-17T01:19:02.422Z,7.03
2022-08-17T01:21:46.897Z,6.72
2022-08-17T01:24:19.727Z,7.35
2022-08-17T01:26:52.105Z,6.60
2022-08-17T01:29:24.845Z,7.00
2022-08-17T01:32:00.911Z,6.60
2022-08-17T01:34:39.880Z,7.08
2022-08-17T01:39:53.242Z,6.47
2022-08-17T01:42:52.168Z,7.35
2022-08-17T01:45:34.221Z,6.80
2022-08-17T01:48:07.134Z,6.70
2022-08-17T01:50:41.993Z,6.67
2022-08-17T01:53:22.203Z,6.25
2022-08-17T01:55:58.306Z,7.40
2022-08-17T01:58:30.786Z,7.12
2022-08-17T02:01:03.345Z,7.67
2022-08-17T02:03:36.559Z,6.87
2022-08-17T02:06:27.015Z,6.90
2022-08-17T02:09:01.629Z,7.17
2022-08-17T02:11:20.514Z,7.35
2022-08-17T02:14:02.449Z,7.50
2022-08-17T02:16:29.659Z,6.83
2022-08-17T02:19:03.833Z,7.12
2022-08-17T02:21:37.812Z,6.92
2022-08-17T02:24:13.423Z,7.47
2022-08-17T02:26:47.063Z,6.35
2022-08-17T02:29:20.695Z,8.13
2022-08-17T02:31:53.215Z,6.93
2022-08-17T02:34:27.709Z,6.95
2022-08-17T02:39:32.866Z,6.80
2022-08-17T02:42:06.688Z,6.87
2022-08-17T02:44:40.262Z,8.10
2022-08-17T02:47:13.971Z,7.77
2022-08-17T02:49:55.373Z,7.75
2022-08-17T02:52:43.038Z,7.47
2022-08-17T02:54:56.242Z,7.10
2022-08-17T02:57:28.783Z,7.47
2022-08-17T03:00:01.159Z,7.47
2022-08-17T03:02:40.598Z,7.50
2022-08-17T03:05:14.835Z,7.40
2022-08-17T03:07:47.572Z,7.20
2022-08-17T03:10:22.982Z,6.80
2022-08-17T03:12:55.832Z,7.75
2022-08-17T03:15:31.594Z,6.92
2022-08-17T03:18:05.489Z,8.00
2022-08-17T03:20:39.638Z,6.97
2022-08-17T03:23:12.037Z,7.08
2022-08-17T03:25:46.140Z,8.70
2022-08-17T03:28:18.597Z,7.45
2022-08-17T03:30:51.702Z,7.70
2022-08-17T03:33:24.350Z,7.45
2022-08-17T03:35:56.893Z,7.67
2022-08-17T03:38:39.230Z,7.78
2022-08-17T03:41:06.800Z,7.45
2022-08-17T03:46:35.047Z,8.80
2022-08-17T03:49:22.298Z,7.03
2022-08-17T03:52:14.196Z,6.95
2022-08-17T03:55:04.605Z,8.15
2022-08-17T03:57:37.248Z,7.80
2022-08-17T04:00:10.934Z,7.37
2022-08-17T04:02:46.675Z,8.78
2022-08-17T04:05:19.338Z,8.13
2022-08-17T04:07:53.471Z,8.10
2022-08-17T04:10:27.870Z,9.15
2022-08-17T04:13:02.620Z,8.10
2022-08-17T04:15:35.688Z,7.83
2022-08-17T04:18:10.919Z,7.92
2022-08-17T04:20:42.853Z,8.58
2022-08-17T04:23:18.983Z,8.88
2022-08-17T04:25:53.380Z,8.13
2022-08-17T04:28:26.192Z,8.95
2022-08-17T04:30:59.147Z,8.05
2022-08-17T04:33:31.716Z,8.33
2022-08-17T04:36:05.617Z,8.53
2022-08-17T04:38:41.403Z,8.00
2022-08-17T04:41:32.633Z,9.30
2022-08-17T04:44:06.811Z,8.18
2022-08-17T04:46:39.458Z,7.90
2022-08-17T04:49:14.936Z,7.55
2022-08-17T04:51:56.825Z,7.08
2022-08-17T04:54:23.476Z,7.47
2022-08-17T04:56:56.869Z,8.25
2022-08-17T04:59:30.478Z,7.00
2022-08-17T05:02:02.876Z,7.45
2022-08-17T05:04:35.618Z,8.85
2022-08-17T05:07:08.096Z,7.47
2022-08-17T05:09:41.094Z,7.90
2022-08-17T05:12:14.231Z,7.53
2022-08-17T05:14:46.796Z,7.72
2022-08-17T05:17:19.438Z,7.65
2022-08-17T05:19:52.174Z,7.53
2022-08-17T05:22:25.714Z,8.08
2022-08-17T05:24:59.320Z,7.67
2022-08-17T05:27:35.943Z,6.75
2022-08-17T05:30:09.884Z,7.70
2022-08-17T05:32:55.715Z,6.83
2022-08-17T05:35:30.093Z,8.15
2022-08-17T05:38:02.440Z,7.05
2022-08-17T05:40:36.549Z,7.03
2022-08-17T05:43:18.260Z,6.92
2022-08-17T05:46:22.333Z,7.28
2022-08-17T05:49:10.061Z,7.17
2022-08-17T05:52:20.032Z,7.45
2022-08-17T05:55:16.727Z,6.95
2022-08-17T06:01:22.255Z,6.95
2022-08-17T06:04:05.327Z,7.03
2022-08-17T06:09:34.415Z,7.50
2022-08-17T06:12:36.231Z,7.45
2022-08-17T06:15:34.087Z,6.72
2022-08-17T06:18:10.069Z,7.47
2022-08-17T06:20:50.423Z,6.92
2022-08-17T06:23:44.244Z,6.80
2022-08-17T06:26:30.284Z,6.80
2022-08-17T06:29:20.322Z,7.00
2022-08-17T06:31:52.779Z,6.28
2022-08-17T06:34:25.285Z,6.78
2022-08-17T06:37:17.395Z,7.40
2022-08-17T06:40:17.078Z,7.10
2022-08-17T06:43:14.002Z,6.58
2022-08-17T06:46:11.707Z,6.80
2022-08-17T06:49:27.109Z,7.05
2022-08-17T06:52:45.457Z,6.80
2022-08-17T06:55:07.335Z,6.20
2022-08-17T06:57:47.804Z,6.40
2022-08-17T07:00:25.481Z,6.62
2022-08-17T07:03:23.806Z,6.62
2022-08-17T07:05:59.747Z,6.65
2022-08-17T07:09:03.969Z,6.45
2022-08-17T07:12:04.679Z,6.70
2022-08-17T07:14:58.309Z,6.37
2022-08-17T07:17:47.484Z,6.53
2022-08-17T07:20:13.027Z,6.15
2022-08-17T07:23:12.447Z,5.90
2022-08-17T07:25:44.965Z,7.30
2022-08-17T07:28:23.219Z,7.00
2022-08-17T07:30:56.350Z,6.97
2022-08-17T07:33:32.411Z,6.28
2022-08-17T07:36:06.999Z,6.25
2022-08-17T07:38:41.060Z,6.45
2022-08-17T07:43:52.322Z,6.97
2022-08-17T07:47:09.035Z,6.50
2022-08-17T07:49:46.435Z,6.60
2022-08-17T07:52:52.604Z,6.40
2022-08-17T07:55:32.977Z,6.25
2022-08-17T07:58:05.804Z,6.67
2022-08-17T08:00:38.489Z,6.40
2022-08-17T08:03:31.467Z,7.10
2022-08-17T08:06:05.598Z,7.92
2022-08-17T08:08:43.669Z,6.15
2022-08-17T08:11:19.034Z,6.67
2022-08-17T08:13:51.746Z,6.67
2022-08-17T08:16:32.150Z,6.05
2022-08-17T08:19:04.562Z,5.78
2022-08-17T08:21:50.634Z,6.33
2022-08-17T08:25:09.533Z,5.90
2022-08-17T08:28:11.582Z,5.55
2022-08-17T08:30:48.729Z,6.92
2022-08-17T08:33:46.809Z,6.65
2022-08-17T08:37:14.574Z,6.75
2022-08-17T08:39:35.759Z,5.97
2022-08-17T08:42:16.555Z,6.67
2022-08-17T08:45:03.534Z,6.30
2022-08-17T08:47:58.371Z,6.53
2022-08-17T08:51:05.521Z,6.90
2022-08-17T08:54:11.789Z,7.17
2022-08-17T08:57:22.137Z,6.67
2022-08-17T08:59:58.592Z,7.90
2022-08-17T09:03:51.222Z,7.87
2022-08-17T09:06:06.928Z,6.85
2022-08-17T09:08:56.105Z,6.67
2022-08-17T09:12:02.254Z,6.62
2022-08-17T09:14:49.225Z,7.00
2022-08-17T09:17:25.521Z,7.12
2022-08-17T09:20:27.472Z,7.37
2022-08-17T09:22:54.611Z,6.90
2022-08-17T09:25:31.771Z,6.72
2022-08-17T09:28:08.600Z,7.37
2022-08-17T09:30:49.052Z,7.10
2022-08-17T09:33:28.117Z,8.05
2022-08-17T09:36:22.405Z,7.05
2022-08-17T09:39:18.526Z,7.08
2022-08-17T09:42:18.256Z,8.68
2022-08-17T09:45:04.522Z,8.08
2022-08-17T09:47:58.655Z,7.10
2022-08-17T09:51:05.300Z,10.85
2022-08-17T09:53:31.687Z,7.90
2022-08-17T09:56:31.385Z,7.30
2022-08-17T09:59:38.427Z,8.18
2022-08-17T10:02:23.187Z,7.65
2022-08-17T10:05:21.980Z,7.35
2022-08-17T10:08:07.542Z,7.33
2022-08-17T10:10:52.413Z,7.83
2022-08-17T10:13:53.211Z,8.05
2022-08-17T10:16:44.360Z,7.62
2022-08-17T10:19:44.081Z,7.50
2022-08-17T10:22:58.023Z,7.55
2022-08-17T10:25:55.182Z,7.87
2022-08-17T10:28:47.937Z,7.85
2022-08-17T10:31:41.010Z,9.00
2022-08-17T10:34:24.786Z,9.23
2022-08-17T10:37:38.682Z,8.70
2022-08-17T10:40:46.055Z,8.93
2022-08-17T10:43:38.673Z,9.08
2022-08-17T10:46:50.627Z,8.70
2022-08-17T10:49:36.772Z,8.28
2022-08-17T10:52:33.194Z,7.15
2022-08-17T10:55:18.881Z,6.78
2022-08-17T10:57:53.526Z,6.55
2022-08-17T11:00:46.556Z,6.65
2022-08-17T11:03:22.267Z,7.75
2022-08-17T11:06:14.333Z,6.33
2022-08-17T11:09:29.009Z,6.15
2022-08-17T11:12:21.459Z,6.08
2022-08-17T11:15:04.740Z,5.97
2022-08-17T11:17:52.209Z,6.87
2022-08-17T11:20:53.495Z,7.15
2022-08-17T11:24:06.012Z,6.80
2022-08-17T11:26:42.052Z,9.40
2022-08-17T11:29:24.921Z,8.05
2022-08-17T11:32:11.138Z,7.90
2022-08-17T11:34:44.755Z,10.48
2022-08-17T11:40:14.562Z,6.72
2022-08-17T11:43:07.811Z,7.45
2022-08-17T11:46:13.944Z,7.72
2022-08-17T11:49:15.073Z,7.45
2022-08-17T11:52:07.988Z,7.28
2022-08-17T11:54:48.586Z,7.55
2022-08-17T11:57:33.624Z,7.17
2022-08-17T12:00:11.552Z,7.67
2022-08-17T12:02:48.982Z,7.12
2022-08-17T12:05:31.005Z,8.00
2022-08-17T12:08:20.997Z,7.58
2022-08-17T12:11:19.099Z,7.08
2022-08-17T12:13:57.792Z,7.30
2022-08-17T12:16:31.632Z,7.35
2022-08-17T12:21:57.922Z,7.42
2022-08-17T12:24:50.683Z,7.62
2022-08-17T12:27:43.197Z,7.12
2022-08-17T12:30:29.899Z,6.90
2022-08-17T12:33:02.991Z,7.00
2022-08-17T12:35:39.080Z,7.25
2022-08-17T12:38:26.769Z,7.00
2022-08-17T12:40:58.782Z,7.20
2022-08-17T12:43:33.800Z,8.95
2022-08-17T12:46:13.020Z,8.33
2022-08-17T12:48:58.720Z,7.25
2022-08-17T12:51:17.444Z,7.40
2022-08-17T12:53:55.819Z,6.95
2022-08-17T12:56:30.049Z,8.45
2022-08-17T12:59:04.745Z,7.75
2022-08-17T13:01:43.292Z,7.53
2022-08-17T13:04:16.378Z,8.55
2022-08-17T13:06:52.742Z,7.33
2022-08-17T13:09:30.957Z,7.37
2022-08-17T13:12:06.011Z,6.83
2022-08-17T13:14:43.200Z,7.22
2022-08-17T13:17:15.645Z,7.47
2022-08-17T13:19:50.685Z,15.15
2022-08-17T13:22:26.744Z,7.05
2022-08-17T13:25:04.673Z,6.78
2022-08-17T13:27:38.495Z,6.40
2022-08-17T13:30:16.176Z,6.90
2022-08-17T13:32:48.842Z,6.62
2022-08-17T13:35:47.108Z,7.47
2022-08-17T13:38:45.094Z,7.50
2022-08-17T13:41:39.040Z,6.70
2022-08-17T13:44:32.979Z,7.55
2022-08-17T13:47:09.421Z,6.80
2022-08-17T13:49:48.772Z,7.30
2022-08-17T13:52:38.863Z,6.90
2022-08-17T13:55:21.378Z,7.10
2022-08-17T13:58:03.682Z,6.80
2022-08-17T14:00:34.261Z,6.67
2022-08-17T14:03:07.692Z,8.30
2022-08-17T14:05:41.214Z,7.37
2022-08-17T14:08:14.894Z,7.05
2022-08-17T14:10:52.537Z,10.43
2022-08-17T14:13:25.988Z,7.53
2022-08-17T14:15:59.599Z,7.72
2022-08-17T14:18:55.992Z,7.92
2022-08-17T14:21:08.561Z,8.13
2022-08-17T14:23:43.593Z,7.05
2022-08-17T14:26:17.894Z,7.20
2022-08-17T14:28:54.606Z,6.95
2022-08-17T14:31:25.568Z,6.78
2022-08-17T14:33:59.218Z,6.22
2022-08-17T14:36:32.279Z,7.05
2022-08-17T14:39:05.439Z,8.15
2022-08-17T14:41:38.488Z,7.00
2022-08-17T14:44:13.621Z,6.53
2022-08-17T14:46:48.075Z,6.55
2022-08-17T14:49:20.862Z,6.60
2022-08-17T14:51:54.168Z,7.00
2022-08-17T14:54:34.214Z,6.00
2022-08-17T14:57:24.678Z,6.80
2022-08-17T15:02:08.710Z,6.85
2022-08-17T15:04:45.541Z,9.83
2022-08-17T15:07:21.766Z,6.45
2022-08-17T15:09:57.001Z,6.75
2022-08-17T15:12:34.000Z,6.25
2022-08-17T15:15:07.354Z,6.70
2022-08-17T15:17:43.865Z,8.20
2022-08-17T15:20:20.918Z,6.85
2022-08-17T15:22:57.573Z,5.78
2022-08-17T15:25:32.107Z,6.90
2022-08-17T15:28:04.881Z,7.17
2022-08-17T15:30:38.531Z,6.70
2022-08-17T15:33:28.371Z,6.85
2022-08-17T15:36:04.968Z,6.90
2022-08-17T15:38:39.476Z,6.83
2022-08-17T15:41:16.617Z,6.70
2022-08-17T15:43:50.373Z,7.00
2022-08-17T15:46:25.839Z,7.55
2022-08-17T15:48:59.260Z,6.40
2022-08-17T15:51:35.421Z,6.75
2022-08-17T15:54:17.099Z,6.22
2022-08-17T15:56:48.397Z,7.58
2022-08-17T15:59:21.106Z,6.80
2022-08-17T16:03:14.149Z,7.10
2022-08-17T16:04:31.802Z,7.33
2022-08-17T16:07:05.946Z,6.72
2022-08-17T16:09:39.189Z,7.20
2022-08-17T16:12:17.780Z,7.20
2022-08-17T16:14:51.879Z,7.92
2022-08-17T16:17:39.883Z,7.62
2022-08-17T16:19:59.249Z,7.85
2022-08-17T16:22:44.974Z,7.75
2022-08-17T16:25:21.515Z,7.97
2022-08-17T16:27:53.955Z,7.20
2022-08-17T16:30:29.589Z,7.65
2022-08-17T16:33:03.218Z,7.28
2022-08-17T16:35:36.306Z,8.83
2022-08-17T16:38:09.822Z,7.62
2022-08-17T16:43:15.472Z,6.92
2022-08-17T16:45:51.951Z,7.10
2022-08-17T16:48:23.461Z,7.58
2022-08-17T16:51:02.871Z,7.95
2022-08-17T16:53:32.000Z,7.30
2022-08-17T16:56:05.965Z,8.03
2022-08-17T16:58:40.319Z,7.62
2022-08-17T17:01:13.010Z,7.42
2022-08-17T17:03:45.924Z,9.73
2022-08-17T17:06:55.319Z,6.83
2022-08-17T17:09:31.813Z,8.13
2022-08-17T17:12:09.806Z,7.30
2022-08-17T17:14:45.926Z,7.83
2022-08-17T17:17:29.096Z,7.80
2022-08-17T17:20:23.117Z,7.67
2022-08-17T17:23:12.749Z,7.30
2022-08-17T17:25:56.124Z,7.72
2022-08-17T17:28:54.458Z,8.30
2022-08-17T17:32:09.234Z,7.75
2022-08-17T17:34:42.443Z,7.17
2022-08-17T17:37:18.349Z,7.92
2022-08-17T17:40:17.369Z,7.92
2022-08-17T17:42:52.531Z,10.63
2022-08-17T17:45:37.261Z,10.43
2022-08-17T17:48:10.098Z,8.60
2022-08-17T17:52:02.846Z,8.70
2022-08-17T17:54:06.159Z,12.78
2022-08-17T17:56:55.799Z,9.85
2022-08-17T17:59:51.474Z,8.78
2022-08-17T18:02:51.238Z,8.88
2022-08-17T18:05:49.465Z,9.03
2022-08-17T18:09:02.210Z,9.58
2022-08-17T18:11:58.997Z,11.55
2022-08-17T18:14:58.743Z,10.85
2022-08-17T18:17:31.391Z,16.32
2022-08-17T18:20:07.246Z,11.45
2022-08-17T18:22:40.631Z,10.30
2022-08-17T18:25:40.003Z,10.58
2022-08-17T18:28:17.733Z,11.97
2022-08-17T18:31:15.005Z,11.00
2022-08-17T18:33:50.521Z,11.38
2022-08-17T18:36:36.585Z,9.78
2022-08-17T18:39:18.880Z,9.58
2022-08-17T18:41:53.444Z,10.13
2022-08-17T18:44:38.144Z,10.55
2022-08-17T18:47:18.243Z,12.70
2022-08-17T18:49:58.242Z,10.78
2022-08-17T18:52:33.598Z,11.43
2022-08-17T18:55:15.978Z,11.40
2022-08-17T18:57:57.925Z,12.30
2022-08-17T19:00:41.532Z,11.65
2022-08-17T19:03:26.162Z,12.00
2022-08-17T19:06:18.081Z,11.50
2022-08-17T19:08:50.697Z,10.68
2022-08-17T19:11:31.125Z,16.85
2022-08-17T19:14:08.918Z,11.73
2022-08-17T19:17:07.281Z,12.95
2022-08-17T19:20:05.715Z,10.03
2022-08-17T19:23:09.592Z,11.57
2022-08-17T19:25:53.443Z,10.70
2022-08-17T19:28:41.041Z,10.32
2022-08-17T19:31:24.708Z,9.70
2022-08-17T19:33:57.434Z,10.20
2022-08-17T19:36:55.423Z,11.50
2022-08-17T19:39:48.222Z,10.55
2022-08-17T19:42:42.190Z,11.22
2022-08-17T19:45:37.955Z,10.00
2022-08-17T19:48:28.256Z,10.85
2022-08-17T19:51:05.578Z,10.88
2022-08-17T19:54:09.549Z,10.75
2022-08-17T19:57:08.420Z,11.35
2022-08-17T20:00:04.610Z,12.63
2022-08-17T20:02:45.105Z,14.93
2022-08-17T20:06:08.597Z,13.75
2022-08-17T20:08:17.880Z,12.03
2022-08-17T20:10:57.632Z,12.88
2022-08-17T20:13:43.170Z,12.33
2022-08-17T20:16:17.627Z,13.38
2022-08-17T20:19:10.371Z,19.35
2022-08-17T20:22:02.530Z,12.88
2022-08-17T20:24:47.280Z,12.15
2022-08-17T20:27:31.466Z,10.32
2022-08-17T20:30:34.808Z,11.88
2022-08-17T20:33:17.119Z,18.20
2022-08-17T20:36:23.838Z,11.85
2022-08-17T20:38:58.517Z,11.00
2022-08-17T20:41:31.705Z,11.85
2022-08-17T20:44:06.243Z,11.05
2022-08-17T20:46:43.564Z,10.88
2022-08-17T20:49:47.909Z,10.55
2022-08-17T20:52:55.756Z,10.88
2022-08-17T20:55:52.394Z,10.93
2022-08-17T20:58:33.853Z,11.33
2022-08-17T21:01:18.143Z,11.55
2022-08-17T21:03:52.060Z,9.53
2022-08-17T21:06:25.595Z,9.48
2022-08-17T21:09:17.085Z,10.95
2022-08-17T21:12:05.619Z,10.75
2022-08-17T21:15:01.248Z,10.58
2022-08-17T21:17:45.706Z,9.85
2022-08-17T21:20:48.914Z,9.90
2022-08-17T21:23:38.396Z,10.38
2022-08-17T21:26:50.590Z,9.58
2022-08-17T21:29:31.020Z,11.45
2022-08-17T21:32:06.945Z,10.68
2022-08-17T21:34:45.362Z,10.13
2022-08-17T21:37:29.879Z,10.13
2022-08-17T21:40:13.965Z,10.05
2022-08-17T21:43:12.134Z,19.90
2022-08-17T21:45:44.998Z,36.42
2022-08-17T21:48:27.550Z,14.18
2022-08-17T21:51:16.670Z,12.35
2022-08-17T21:53:58.771Z,11.03
2022-08-17T21:56:55.099Z,10.80
2022-08-17T21:59:40.293Z,10.78
2022-08-17T22:02:23.043Z,9.93
2022-08-17T22:05:05.206Z,11.30
2022-08-17T22:07:45.382Z,10.72
2022-08-17T22:10:33.019Z,10.53
2022-08-17T22:13:24.364Z,11.63
2022-08-17T22:16:15.585Z,11.35
2022-08-17T22:18:53.706Z,9.98
2022-08-17T22:21:26.681Z,10.65
2022-08-17T22:24:09.411Z,9.90
2022-08-17T22:27:20.112Z,9.78
2022-08-17T22:29:58.084Z,9.93
2022-08-17T22:32:44.226Z,9.13
2022-08-17T22:35:37.199Z,9.10
2022-08-17T22:38:25.734Z,9.35
2022-08-17T22:41:17.416Z,8.60
2022-08-17T22:43:50.941Z,9.15
2022-08-17T22:48:59.877Z,9.08
2022-08-17T22:51:32.662Z,8.80
2022-08-17T22:54:29.508Z,9.30
2022-08-17T22:57:22.468Z,8.50
2022-08-17T22:59:56.396Z,9.10
2022-08-17T23:02:34.739Z,10.48
2022-08-17T23:05:19.042Z,10.63
2022-08-17T23:07:53.527Z,13.10
2022-08-17T23:13:21.534Z,9.78
2022-08-17T23:15:54.323Z,8.65
2022-08-17T23:18:27.837Z,10.57
2022-08-17T23:21:00.554Z,10.45
2022-08-17T23:23:36.076Z,9.30
2022-08-17T23:26:10.721Z,8.63
2022-08-17T23:28:44.177Z,7.87
2022-08-17T23:33:53.034Z,7.70
2022-08-17T23:36:27.329Z,7.80
2022-08-17T23:39:00.504Z,7.95
2022-08-17T23:41:36.464Z,8.13
2022-08-17T23:44:10.093Z,8.30
2022-08-17T23:46:44.494Z,8.15
2022-08-17T23:49:17.176Z,7.30
2022-08-17T23:51:50.185Z,8.03
2022-08-17T23:54:40.191Z,7.70
2022-08-17T23:57:14.069Z,7.95
2022-08-17T23:59:47.054Z,7.92
